sensor_id;sensor_type;location;lat;lon;timestamp;temperature;humidity
55795;DHT22;41716;51.910;4.430;2023-08-30T00:00:22;17.40;99.90
55795;DHT22;41716;51.910;4.430;2023-08-30T00:05:24;17.50;99.90
55795;DHT22;41716;51.910;4.430;2023-08-30T00:10:29;18.00;99.90
55795;DHT22;41716;51.910;4.430;2023-08-30T00:15:31;17.60;99.90
55795;DHT22;41716;51.910;4.430;2023-08-30T00:20:32;17.70;99.90
55795;DHT22;41716;51.910;4.430;2023-08-30T00:25:35;17.80;99.90
55795;DHT22;41716;51.910;4.430;2023-08-30T00:30:37;17.00;99.90
55795;DHT22;41716;51.910;4.430;2023-08-30T00:35:38;17.00;99.90
55795;DHT22;41716;51.910;4.430;2023-08-30T00:40:41;17.40;99.90
55795;DHT22;41716;51.910;4.430;2023-08-30T00:45:43;17.80;99.90
55795;DHT22;41716;51.910;4.430;2023-08-30T00:50:45;17.70;99.90
55795;DHT22;41716;51.910;4.430;2023-08-30T00:55:48;17.60;99.90
55795;DHT22;41716;51.910;4.430;2023-08-30T01:00:49;16.90;99.90
55795;DHT22;41716;51.910;4.430;2023-08-30T01:05:51;17.70;99.90
55795;DHT22;41716;51.910;4.430;2023-08-30T01:10:56;17.70;99.90
55795;DHT22;41716;51.910;4.430;2023-08-30T01:16:01;16.90;99.90
55795;DHT22;41716;51.910;4.430;2023-08-30T01:21:03;17.30;99.90
55795;DHT22;41716;51.910;4.430;2023-08-30T01:26:09;17.40;99.90
55795;DHT22;41716;51.910;4.430;2023-08-30T01:31:14;16.70;99.90
55795;DHT22;41716;51.910;4.430;2023-08-30T01:36:16;17.20;99.90
55795;DHT22;41716;51.910;4.430;2023-08-30T01:41:18;16.70;99.90
55795;DHT22;41716;51.910;4.430;2023-08-30T01:46:21;16.90;99.90
55795;DHT22;41716;51.910;4.430;2023-08-30T01:51:24;17.00;99.90
55795;DHT22;41716;51.910;4.430;2023-08-30T01:56:26;17.70;99.90
55795;DHT22;41716;51.910;4.430;2023-08-30T02:01:29;17.70;99.90
55795;DHT22;41716;51.910;4.430;2023-08-30T02:06:31;16.30;99.90
55795;DHT22;41716;51.910;4.430;2023-08-30T02:11:34;16.60;99.90
55795;DHT22;41716;51.910;4.430;2023-08-30T02:16:37;16.00;99.90
55795;DHT22;41716;51.910;4.430;2023-08-30T02:21:39;16.20;99.90
55795;DHT22;41716;51.910;4.430;2023-08-30T02:26:41;16.10;99.90
55795;DHT22;41716;51.910;4.430;2023-08-30T02:31:43;17.20;99.90
55795;DHT22;41716;51.910;4.430;2023-08-30T02:36:45;16.00;99.90
55795;DHT22;41716;51.910;4.430;2023-08-30T02:41:47;16.00;99.90
55795;DHT22;41716;51.910;4.430;2023-08-30T02:46:50;17.40;99.90
55795;DHT22;41716;51.910;4.430;2023-08-30T02:51:51;15.70;99.90
55795;DHT22;41716;51.910;4.430;2023-08-30T02:56:53;15.60;99.90
55795;DHT22;41716;51.910;4.430;2023-08-30T03:01:56;16.90;99.90
55795;DHT22;41716;51.910;4.430;2023-08-30T03:06:58;15.70;99.90
55795;DHT22;41716;51.910;4.430;2023-08-30T03:11:59;15.80;99.90
55795;DHT22;41716;51.910;4.430;2023-08-30T03:17:02;15.10;99.90
55795;DHT22;41716;51.910;4.430;2023-08-30T03:22:04;16.80;99.90
55795;DHT22;41716;51.910;4.430;2023-08-30T03:27:06;16.70;99.90
55795;DHT22;41716;51.910;4.430;2023-08-30T03:32:09;15.60;99.90
55795;DHT22;41716;51.910;4.430;2023-08-30T03:37:11;16.50;99.90
55795;DHT22;41716;51.910;4.430;2023-08-30T03:42:12;16.90;99.90
55795;DHT22;41716;51.910;4.430;2023-08-30T03:47:15;17.20;99.90
55795;DHT22;41716;51.910;4.430;2023-08-30T03:52:17;14.40;99.90
55795;DHT22;41716;51.910;4.430;2023-08-30T03:57:18;16.80;99.90
55795;DHT22;41716;51.910;4.430;2023-08-30T04:02:21;14.60;99.90
55795;DHT22;41716;51.910;4.430;2023-08-30T04:07:23;16.80;99.90
55795;DHT22;41716;51.910;4.430;2023-08-30T04:12:24;16.50;99.90
55795;DHT22;41716;51.910;4.430;2023-08-30T04:17:27;17.00;99.90
55795;DHT22;41716;51.910;4.430;2023-08-30T04:22:29;16.20;99.90
55795;DHT22;41716;51.910;4.430;2023-08-30T04:27:30;17.00;99.90
55795;DHT22;41716;51.910;4.430;2023-08-30T04:32:33;15.70;99.90
55795;DHT22;41716;51.910;4.430;2023-08-30T04:37:35;16.80;99.90
55795;DHT22;41716;51.910;4.430;2023-08-30T04:42:38;14.20;99.90
55795;DHT22;41716;51.910;4.430;2023-08-30T04:47:42;15.20;99.90
55795;DHT22;41716;51.910;4.430;2023-08-30T04:52:45;16.70;99.90
55795;DHT22;41716;51.910;4.430;2023-08-30T04:57:47;16.30;99.90
55795;DHT22;41716;51.910;4.430;2023-08-30T05:02:50;17.10;99.90
55795;DHT22;41716;51.910;4.430;2023-08-30T05:07:51;14.90;99.90
55795;DHT22;41716;51.910;4.430;2023-08-30T05:12:53;17.30;99.90
55795;DHT22;41716;51.910;4.430;2023-08-30T05:17:56;16.70;99.90
55795;DHT22;41716;51.910;4.430;2023-08-30T05:22:57;17.20;99.90
55795;DHT22;41716;51.910;4.430;2023-08-30T05:27:59;15.20;99.90
55795;DHT22;41716;51.910;4.430;2023-08-30T05:33:02;16.90;99.90
55795;DHT22;41716;51.910;4.430;2023-08-30T05:38:03;17.80;99.90
55795;DHT22;41716;51.910;4.430;2023-08-30T05:43:05;17.60;99.90
55795;DHT22;41716;51.910;4.430;2023-08-30T05:48:08;16.00;99.90
55795;DHT22;41716;51.910;4.430;2023-08-30T05:53:09;14.20;99.90
55795;DHT22;41716;51.910;4.430;2023-08-30T05:58:11;17.80;99.90
55795;DHT22;41716;51.910;4.430;2023-08-30T06:03:15;16.50;99.90
55795;DHT22;41716;51.910;4.430;2023-08-30T06:08:16;22.00;99.90
55795;DHT22;41716;51.910;4.430;2023-08-30T06:13:19;10.50;99.90
55795;DHT22;41716;51.910;4.430;2023-08-30T06:18:21;16.00;99.90
55795;DHT22;41716;51.910;4.430;2023-08-30T06:23:23;11.80;99.90
55795;DHT22;41716;51.910;4.430;2023-08-30T06:28:25;19.80;99.90
55795;DHT22;41716;51.910;4.430;2023-08-30T06:33:27;16.10;99.90
55795;DHT22;41716;51.910;4.430;2023-08-30T06:38:29;19.10;99.90
55795;DHT22;41716;51.910;4.430;2023-08-30T06:43:31;14.80;99.90
55795;DHT22;41716;51.910;4.430;2023-08-30T06:48:33;17.10;99.90
55795;DHT22;41716;51.910;4.430;2023-08-30T06:53:35;19.70;99.90
55795;DHT22;41716;51.910;4.430;2023-08-30T06:58:36;18.20;99.90
55795;DHT22;41716;51.910;4.430;2023-08-30T07:03:39;11.80;99.90
55795;DHT22;41716;51.910;4.430;2023-08-30T07:08:41;15.40;99.90
55795;DHT22;41716;51.910;4.430;2023-08-30T07:13:43;17.90;99.90
55795;DHT22;41716;51.910;4.430;2023-08-30T07:18:46;19.50;99.90
55795;DHT22;41716;51.910;4.430;2023-08-30T07:23:47;13.70;99.90
55795;DHT22;41716;51.910;4.430;2023-08-30T07:28:49;19.00;99.90
55795;DHT22;41716;51.910;4.430;2023-08-30T07:33:53;14.40;99.90
55795;DHT22;41716;51.910;4.430;2023-08-30T07:38:54;19.00;99.90
55795;DHT22;41716;51.910;4.430;2023-08-30T07:43:56;19.00;99.90
55795;DHT22;41716;51.910;4.430;2023-08-30T07:48:59;18.40;99.90
55795;DHT22;41716;51.910;4.430;2023-08-30T07:54:00;14.50;99.90
55795;DHT22;41716;51.910;4.430;2023-08-30T07:59:02;17.20;99.90
55795;DHT22;41716;51.910;4.430;2023-08-30T08:04:05;15.30;99.90
55795;DHT22;41716;51.910;4.430;2023-08-30T08:09:07;14.40;99.90
55795;DHT22;41716;51.910;4.430;2023-08-30T08:14:09;19.20;99.90
55795;DHT22;41716;51.910;4.430;2023-08-30T08:19:12;19.60;99.90
55795;DHT22;41716;51.910;4.430;2023-08-30T08:24:14;17.80;99.90
55795;DHT22;41716;51.910;4.430;2023-08-30T08:46:32;21.10;99.90
55795;DHT22;41716;51.910;4.430;2023-08-30T08:51:36;21.70;99.90
55795;DHT22;41716;51.910;4.430;2023-08-30T08:56:38;21.70;99.90
55795;DHT22;41716;51.910;4.430;2023-08-30T09:01:41;21.00;99.90
55795;DHT22;41716;51.910;4.430;2023-08-30T09:06:43;20.40;99.90
55795;DHT22;41716;51.910;4.430;2023-08-30T09:11:45;20.10;99.90
55795;DHT22;41716;51.910;4.430;2023-08-30T09:16:57;19.90;99.90
55795;DHT22;41716;51.910;4.430;2023-08-30T09:22:00;19.30;99.90
55795;DHT22;41716;51.910;4.430;2023-08-30T09:27:02;19.20;99.90
55795;DHT22;41716;51.910;4.430;2023-08-30T09:32:07;19.10;99.90
55795;DHT22;41716;51.910;4.430;2023-08-30T09:37:09;19.20;99.90
55795;DHT22;41716;51.910;4.430;2023-08-30T09:42:20;19.70;99.90
55795;DHT22;41716;51.910;4.430;2023-08-30T09:47:24;19.50;99.90
55795;DHT22;41716;51.910;4.430;2023-08-30T09:52:26;19.00;99.90
55795;DHT22;41716;51.910;4.430;2023-08-30T09:57:30;18.80;99.90
55795;DHT22;41716;51.910;4.430;2023-08-30T10:02:33;19.50;99.90
55795;DHT22;41716;51.910;4.430;2023-08-30T10:07:35;19.50;99.90
55795;DHT22;41716;51.910;4.430;2023-08-30T10:12:37;18.30;99.90
55795;DHT22;41716;51.910;4.430;2023-08-30T10:17:43;17.10;99.90
55795;DHT22;41716;51.910;4.430;2023-08-30T10:22:46;19.50;99.90
55795;DHT22;41716;51.910;4.430;2023-08-30T10:27:49;19.60;99.90
55795;DHT22;41716;51.910;4.430;2023-08-30T10:32:52;20.00;99.90
55795;DHT22;41716;51.910;4.430;2023-08-30T10:37:54;19.70;99.90
55795;DHT22;41716;51.910;4.430;2023-08-30T10:42:59;21.20;99.90
55795;DHT22;41716;51.910;4.430;2023-08-30T10:48:02;20.40;99.90
55795;DHT22;41716;51.910;4.430;2023-08-30T10:53:08;22.30;99.90
55795;DHT22;41716;51.910;4.430;2023-08-30T10:58:14;21.50;99.90
55795;DHT22;41716;51.910;4.430;2023-08-30T11:03:17;22.10;99.90
55795;DHT22;41716;51.910;4.430;2023-08-30T11:08:19;22.10;99.90
55795;DHT22;41716;51.910;4.430;2023-08-30T11:13:21;21.60;99.90
55795;DHT22;41716;51.910;4.430;2023-08-30T11:18:24;20.80;99.90
55795;DHT22;41716;51.910;4.430;2023-08-30T11:23:26;22.00;99.90
55795;DHT22;41716;51.910;4.430;2023-08-30T11:28:28;22.70;99.90
55795;DHT22;41716;51.910;4.430;2023-08-30T11:33:31;21.80;99.90
55795;DHT22;41716;51.910;4.430;2023-08-30T11:38:33;22.00;99.90
55795;DHT22;41716;51.910;4.430;2023-08-30T11:43:35;23.80;99.90
55795;DHT22;41716;51.910;4.430;2023-08-30T11:48:38;24.60;99.90
55795;DHT22;41716;51.910;4.430;2023-08-30T11:53:39;23.70;99.90
55795;DHT22;41716;51.910;4.430;2023-08-30T11:58:41;24.00;99.90
55795;DHT22;41716;51.910;4.430;2023-08-30T12:03:45;24.70;99.90
55795;DHT22;41716;51.910;4.430;2023-08-30T12:08:56;25.50;99.90
55795;DHT22;41716;51.910;4.430;2023-08-30T12:14:01;25.70;99.90
55795;DHT22;41716;51.910;4.430;2023-08-30T12:19:10;26.90;99.90
55795;DHT22;41716;51.910;4.430;2023-08-30T12:24:12;26.40;99.90
55795;DHT22;41716;51.910;4.430;2023-08-30T12:29:14;25.90;99.90
55795;DHT22;41716;51.910;4.430;2023-08-30T12:34:17;24.90;99.90
55795;DHT22;41716;51.910;4.430;2023-08-30T12:39:19;23.90;99.90
55795;DHT22;41716;51.910;4.430;2023-08-30T12:44:20;22.90;99.90
55795;DHT22;41716;51.910;4.430;2023-08-30T12:49:23;22.70;99.90
55795;DHT22;41716;51.910;4.430;2023-08-30T12:54:24;22.40;99.90
55795;DHT22;41716;51.910;4.430;2023-08-30T12:59:26;22.40;99.90
55795;DHT22;41716;51.910;4.430;2023-08-30T13:04:29;22.00;99.90
55795;DHT22;41716;51.910;4.430;2023-08-30T13:09:30;22.00;99.90
55795;DHT22;41716;51.910;4.430;2023-08-30T13:14:32;22.10;99.90
55795;DHT22;41716;51.910;4.430;2023-08-30T13:19:35;23.70;99.90
55795;DHT22;41716;51.910;4.430;2023-08-30T13:24:36;22.60;99.90
55795;DHT22;41716;51.910;4.430;2023-08-30T13:29:38;22.00;99.90
55795;DHT22;41716;51.910;4.430;2023-08-30T13:34:41;21.70;99.90
55795;DHT22;41716;51.910;4.430;2023-08-30T13:39:46;21.60;99.90
55795;DHT22;41716;51.910;4.430;2023-08-30T13:44:50;21.40;99.90
55795;DHT22;41716;51.910;4.430;2023-08-30T13:49:53;21.20;99.90
55795;DHT22;41716;51.910;4.430;2023-08-30T13:54:54;21.70;99.90
55795;DHT22;41716;51.910;4.430;2023-08-30T13:59:56;22.30;99.90
55795;DHT22;41716;51.910;4.430;2023-08-30T14:04:59;22.20;99.90
55795;DHT22;41716;51.910;4.430;2023-08-30T14:10:00;22.50;99.90
55795;DHT22;41716;51.910;4.430;2023-08-30T14:15:02;22.80;99.90
55795;DHT22;41716;51.910;4.430;2023-08-30T14:20:06;23.00;99.90
55795;DHT22;41716;51.910;4.430;2023-08-30T14:25:08;22.60;99.90
55795;DHT22;41716;51.910;4.430;2023-08-30T14:30:10;22.50;99.90
55795;DHT22;41716;51.910;4.430;2023-08-30T14:35:13;22.40;99.90
55795;DHT22;41716;51.910;4.430;2023-08-30T14:40:15;21.90;99.90
55795;DHT22;41716;51.910;4.430;2023-08-30T14:45:16;21.70;99.90
55795;DHT22;41716;51.910;4.430;2023-08-30T14:50:19;21.70;99.90
55795;DHT22;41716;51.910;4.430;2023-08-30T14:55:21;22.00;99.90
55795;DHT22;41716;51.910;4.430;2023-08-30T15:00:24;22.70;99.90
55795;DHT22;41716;51.910;4.430;2023-08-30T15:05:27;22.20;99.90
55795;DHT22;41716;51.910;4.430;2023-08-30T15:10:30;21.70;99.90
55795;DHT22;41716;51.910;4.430;2023-08-30T15:15:31;21.50;99.90
55795;DHT22;41716;51.910;4.430;2023-08-30T15:20:34;21.20;99.90
55795;DHT22;41716;51.910;4.430;2023-08-30T15:25:38;21.80;99.90
55795;DHT22;41716;51.910;4.430;2023-08-30T15:30:43;21.90;99.90
55795;DHT22;41716;51.910;4.430;2023-08-30T15:35:46;21.60;99.90
55795;DHT22;41716;51.910;4.430;2023-08-30T15:40:48;21.50;99.90
55795;DHT22;41716;51.910;4.430;2023-08-30T15:45:54;21.50;99.90
55795;DHT22;41716;51.910;4.430;2023-08-30T15:50:56;21.10;99.90
55795;DHT22;41716;51.910;4.430;2023-08-30T15:55:58;21.10;99.90
55795;DHT22;41716;51.910;4.430;2023-08-30T16:01:02;21.20;99.90
55795;DHT22;41716;51.910;4.430;2023-08-30T16:06:05;21.10;99.90
55795;DHT22;41716;51.910;4.430;2023-08-30T16:11:06;20.80;99.90
55795;DHT22;41716;51.910;4.430;2023-08-30T16:16:08;20.70;99.90
55795;DHT22;41716;51.910;4.430;2023-08-30T16:21:11;20.80;99.90
55795;DHT22;41716;51.910;4.430;2023-08-30T16:26:12;20.40;99.90
55795;DHT22;41716;51.910;4.430;2023-08-30T16:31:14;20.50;99.90
55795;DHT22;41716;51.910;4.430;2023-08-30T16:36:17;20.30;99.90
55795;DHT22;41716;51.910;4.430;2023-08-30T16:41:19;20.20;99.90
55795;DHT22;41716;51.910;4.430;2023-08-30T16:46:20;20.10;99.90
55795;DHT22;41716;51.910;4.430;2023-08-30T16:51:23;19.90;99.90
55795;DHT22;41716;51.910;4.430;2023-08-30T16:56:24;19.70;99.90
55795;DHT22;41716;51.910;4.430;2023-08-30T17:01:26;19.60;99.90
55795;DHT22;41716;51.910;4.430;2023-08-30T17:06:29;19.70;99.90
55795;DHT22;41716;51.910;4.430;2023-08-30T17:11:31;19.60;99.90
55795;DHT22;41716;51.910;4.430;2023-08-30T17:16:34;19.60;99.90
55795;DHT22;41716;51.910;4.430;2023-08-30T17:21:37;19.40;99.90
55795;DHT22;41716;51.910;4.430;2023-08-30T17:26:38;19.40;99.90
55795;DHT22;41716;51.910;4.430;2023-08-30T17:31:40;19.30;99.90
55795;DHT22;41716;51.910;4.430;2023-08-30T17:36:43;19.20;99.90
55795;DHT22;41716;51.910;4.430;2023-08-30T17:41:47;19.10;99.90
55795;DHT22;41716;51.910;4.430;2023-08-30T17:46:49;19.10;99.90
55795;DHT22;41716;51.910;4.430;2023-08-30T17:51:52;19.10;99.90
55795;DHT22;41716;51.910;4.430;2023-08-30T17:56:54;18.70;99.90
55795;DHT22;41716;51.910;4.430;2023-08-30T18:01:55;18.50;99.90
55795;DHT22;41716;51.910;4.430;2023-08-30T18:06:58;18.30;99.90
55795;DHT22;41716;51.910;4.430;2023-08-30T18:12:03;18.00;99.90
55795;DHT22;41716;51.910;4.430;2023-08-30T18:17:05;17.70;99.90
55795;DHT22;41716;51.910;4.430;2023-08-30T18:22:08;17.50;99.90
55795;DHT22;41716;51.910;4.430;2023-08-30T18:27:09;17.10;99.90
55795;DHT22;41716;51.910;4.430;2023-08-30T18:32:11;17.10;99.90
55795;DHT22;41716;51.910;4.430;2023-08-30T18:37:14;16.70;99.90
55795;DHT22;41716;51.910;4.430;2023-08-30T18:42:16;17.60;99.90
55795;DHT22;41716;51.910;4.430;2023-08-30T18:47:17;17.70;99.90
55795;DHT22;41716;51.910;4.430;2023-08-30T18:52:22;16.40;99.90
55795;DHT22;41716;51.910;4.430;2023-08-30T18:57:24;16.00;99.90
55795;DHT22;41716;51.910;4.430;2023-08-30T19:02:26;17.50;99.90
55795;DHT22;41716;51.910;4.430;2023-08-30T19:07:28;15.70;99.90
55795;DHT22;41716;51.910;4.430;2023-08-30T19:12:30;16.50;99.90
55795;DHT22;41716;51.910;4.430;2023-08-30T19:17:31;17.30;99.90
55795;DHT22;41716;51.910;4.430;2023-08-30T19:22:34;15.50;99.90
55795;DHT22;41716;51.910;4.430;2023-08-30T19:27:36;16.20;99.90
55795;DHT22;41716;51.910;4.430;2023-08-30T19:32:37;15.10;99.90
55795;DHT22;41716;51.910;4.430;2023-08-30T19:37:40;17.20;99.90
55795;DHT22;41716;51.910;4.430;2023-08-30T19:42:42;17.70;99.90
55795;DHT22;41716;51.910;4.430;2023-08-30T19:47:47;15.40;99.90
55795;DHT22;41716;51.910;4.430;2023-08-30T19:52:50;17.50;99.90
55795;DHT22;41716;51.910;4.430;2023-08-30T19:57:51;17.30;99.90
55795;DHT22;41716;51.910;4.430;2023-08-30T20:02:53;15.40;99.90
55795;DHT22;41716;51.910;4.430;2023-08-30T20:07:58;17.40;99.90
55795;DHT22;41716;51.910;4.430;2023-08-30T20:12:59;17.00;99.90
55795;DHT22;41716;51.910;4.430;2023-08-30T20:18:01;16.30;99.90
55795;DHT22;41716;51.910;4.430;2023-08-30T20:23:05;16.50;99.90
55795;DHT22;41716;51.910;4.430;2023-08-30T20:28:07;15.80;99.90
55795;DHT22;41716;51.910;4.430;2023-08-30T20:33:08;16.60;99.90
55795;DHT22;41716;51.910;4.430;2023-08-30T20:38:11;16.20;99.90
55795;DHT22;41716;51.910;4.430;2023-08-30T20:43:12;15.00;99.90
55795;DHT22;41716;51.910;4.430;2023-08-30T20:48:14;16.70;99.90
55795;DHT22;41716;51.910;4.430;2023-08-30T20:53:17;16.80;99.90
55795;DHT22;41716;51.910;4.430;2023-08-30T20:58:18;14.90;99.90
55795;DHT22;41716;51.910;4.430;2023-08-30T21:03:20;17.50;99.90
55795;DHT22;41716;51.910;4.430;2023-08-30T21:08:23;17.10;99.90
55795;DHT22;41716;51.910;4.430;2023-08-30T21:13:24;16.10;99.90
55795;DHT22;41716;51.910;4.430;2023-08-30T21:18:26;14.90;99.90
55795;DHT22;41716;51.910;4.430;2023-08-30T21:23:29;17.30;99.90
55795;DHT22;41716;51.910;4.430;2023-08-30T21:28:30;15.50;99.90
55795;DHT22;41716;51.910;4.430;2023-08-30T21:33:33;16.90;99.90
55795;DHT22;41716;51.910;4.430;2023-08-30T21:38:36;15.80;99.90
55795;DHT22;41716;51.910;4.430;2023-08-30T21:43:37;15.80;99.90
55795;DHT22;41716;51.910;4.430;2023-08-30T21:48:39;16.90;99.90
55795;DHT22;41716;51.910;4.430;2023-08-30T21:53:42;15.00;99.90
55795;DHT22;41716;51.910;4.430;2023-08-30T21:58:43;16.40;99.90
55795;DHT22;41716;51.910;4.430;2023-08-30T22:03:45;17.30;99.90
55795;DHT22;41716;51.910;4.430;2023-08-30T22:08:48;17.30;99.90
55795;DHT22;41716;51.910;4.430;2023-08-30T22:13:50;15.00;99.90
55795;DHT22;41716;51.910;4.430;2023-08-30T22:18:52;15.70;99.90
55795;DHT22;41716;51.910;4.430;2023-08-30T22:23:55;15.70;99.90
55795;DHT22;41716;51.910;4.430;2023-08-30T22:28:58;15.90;99.90
55795;DHT22;41716;51.910;4.430;2023-08-30T22:34:00;17.20;99.90
55795;DHT22;41716;51.910;4.430;2023-08-30T22:39:03;14.50;99.90
55795;DHT22;41716;51.910;4.430;2023-08-30T22:44:05;15.00;99.90
55795;DHT22;41716;51.910;4.430;2023-08-30T22:49:07;15.20;99.90
55795;DHT22;41716;51.910;4.430;2023-08-30T22:54:10;16.10;99.90
55795;DHT22;41716;51.910;4.430;2023-08-30T22:59:11;17.60;99.90
55795;DHT22;41716;51.910;4.430;2023-08-30T23:04:13;16.80;99.90
55795;DHT22;41716;51.910;4.430;2023-08-30T23:09:16;14.30;99.90
55795;DHT22;41716;51.910;4.430;2023-08-30T23:14:21;14.70;99.90
55795;DHT22;41716;51.910;4.430;2023-08-30T23:19:23;16.60;99.90
55795;DHT22;41716;51.910;4.430;2023-08-30T23:24:26;16.00;99.90
55795;DHT22;41716;51.910;4.430;2023-08-30T23:29:27;15.70;99.90
55795;DHT22;41716;51.910;4.430;2023-08-30T23:34:29;17.40;99.90
55795;DHT22;41716;51.910;4.430;2023-08-30T23:39:32;17.30;99.90
55795;DHT22;41716;51.910;4.430;2023-08-30T23:44:34;14.90;99.90
55795;DHT22;41716;51.910;4.430;2023-08-30T23:49:35;15.20;99.90
55795;DHT22;41716;51.910;4.430;2023-08-30T23:54:38;15.60;99.90
55795;DHT22;41716;51.910;4.430;2023-08-30T23:59:40;14.20;99.90
